sensor_id;sensor_type;location;lat;lon;timestamp;temperature;humidity
75321;DHT22;63920;52.130;5.584;2023-01-26T00:00:53;0.00;99.90
75321;DHT22;63920;52.130;5.584;2023-01-26T00:03:19;-0.10;99.90
75321;DHT22;63920;52.130;5.584;2023-01-26T00:05:44;0.00;99.90
75321;DHT22;63920;52.130;5.584;2023-01-26T00:08:10;-0.10;99.90
75321;DHT22;63920;52.130;5.584;2023-01-26T00:10:37;0.00;99.90
75321;DHT22;63920;52.130;5.584;2023-01-26T00:13:03;0.00;99.90
75321;DHT22;63920;52.130;5.584;2023-01-26T00:15:31;-0.10;99.90
75321;DHT22;63920;52.130;5.584;2023-01-26T00:17:57;-0.10;99.90
75321;DHT22;63920;52.130;5.584;2023-01-26T00:20:23;-0.10;99.90
75321;DHT22;63920;52.130;5.584;2023-01-26T00:22:49;-0.10;99.90
75321;DHT22;63920;52.130;5.584;2023-01-26T00:25:14;-0.10;99.90
75321;DHT22;63920;52.130;5.584;2023-01-26T00:27:40;-0.10;99.90
75321;DHT22;63920;52.130;5.584;2023-01-26T00:30:06;-0.10;99.90
75321;DHT22;63920;52.130;5.584;2023-01-26T00:32:34;-0.10;99.90
75321;DHT22;63920;52.130;5.584;2023-01-26T00:35:00;-0.10;99.90
75321;DHT22;63920;52.130;5.584;2023-01-26T00:37:25;-0.10;99.90
75321;DHT22;63920;52.130;5.584;2023-01-26T00:39:51;0.00;99.90
75321;DHT22;63920;52.130;5.584;2023-01-26T00:42:16;-0.10;99.90
75321;DHT22;63920;52.130;5.584;2023-01-26T00:44:42;-0.10;99.90
75321;DHT22;63920;52.130;5.584;2023-01-26T00:47:10;0.00;99.90
75321;DHT22;63920;52.130;5.584;2023-01-26T00:49:36;-0.10;99.90
75321;DHT22;63920;52.130;5.584;2023-01-26T00:52:02;-0.10;99.90
75321;DHT22;63920;52.130;5.584;2023-01-26T00:54:29;0.00;99.90
75321;DHT22;63920;52.130;5.584;2023-01-26T00:56:55;-0.10;99.90
75321;DHT22;63920;52.130;5.584;2023-01-26T00:59:21;0.00;99.90
75321;DHT22;63920;52.130;5.584;2023-01-26T01:01:47;0.00;99.90
75321;DHT22;63920;52.130;5.584;2023-01-26T01:04:13;0.00;99.90
75321;DHT22;63920;52.130;5.584;2023-01-26T01:06:38;0.00;99.90
75321;DHT22;63920;52.130;5.584;2023-01-26T01:09:04;0.00;99.90
75321;DHT22;63920;52.130;5.584;2023-01-26T01:11:30;0.10;99.90
75321;DHT22;63920;52.130;5.584;2023-01-26T01:13:55;0.00;99.90
75321;DHT22;63920;52.130;5.584;2023-01-26T01:16:21;0.00;99.90
75321;DHT22;63920;52.130;5.584;2023-01-26T01:18:46;0.00;99.90
75321;DHT22;63920;52.130;5.584;2023-01-26T01:21:14;0.00;99.90
75321;DHT22;63920;52.130;5.584;2023-01-26T01:23:41;0.00;99.90
75321;DHT22;63920;52.130;5.584;2023-01-26T01:26:08;0.10;99.90
75321;DHT22;63920;52.130;5.584;2023-01-26T01:28:34;0.00;99.90
75321;DHT22;63920;52.130;5.584;2023-01-26T01:31:12;0.00;99.90
75321;DHT22;63920;52.130;5.584;2023-01-26T01:33:39;0.00;99.90
75321;DHT22;63920;52.130;5.584;2023-01-26T01:36:06;0.00;99.90
75321;DHT22;63920;52.130;5.584;2023-01-26T01:38:33;0.00;99.90
75321;DHT22;63920;52.130;5.584;2023-01-26T01:40:59;0.00;99.90
75321;DHT22;63920;52.130;5.584;2023-01-26T01:43:26;0.00;99.90
75321;DHT22;63920;52.130;5.584;2023-01-26T01:45:53;0.10;99.90
75321;DHT22;63920;52.130;5.584;2023-01-26T01:48:49;0.00;99.90
75321;DHT22;63920;52.130;5.584;2023-01-26T01:51:36;0.00;99.90
75321;DHT22;63920;52.130;5.584;2023-01-26T01:54:09;0.00;99.90
75321;DHT22;63920;52.130;5.584;2023-01-26T01:56:38;0.00;99.90
75321;DHT22;63920;52.130;5.584;2023-01-26T01:59:05;0.00;99.90
75321;DHT22;63920;52.130;5.584;2023-01-26T02:01:32;0.00;99.90
75321;DHT22;63920;52.130;5.584;2023-01-26T02:03:59;0.10;99.90
75321;DHT22;63920;52.130;5.584;2023-01-26T02:09:11;0.00;99.90
75321;DHT22;63920;52.130;5.584;2023-01-26T02:11:57;0.00;99.90
75321;DHT22;63920;52.130;5.584;2023-01-26T02:14:24;0.10;99.90
75321;DHT22;63920;52.130;5.584;2023-01-26T02:16:49;0.10;99.90
75321;DHT22;63920;52.130;5.584;2023-01-26T02:21:56;0.10;99.90
75321;DHT22;63920;52.130;5.584;2023-01-26T02:24:27;0.10;99.90
75321;DHT22;63920;52.130;5.584;2023-01-26T02:26:54;0.10;99.90
75321;DHT22;63920;52.130;5.584;2023-01-26T02:29:21;0.10;99.90
75321;DHT22;63920;52.130;5.584;2023-01-26T02:31:47;0.10;99.90
75321;DHT22;63920;52.130;5.584;2023-01-26T02:34:13;0.20;99.90
75321;DHT22;63920;52.130;5.584;2023-01-26T02:36:38;0.10;99.90
75321;DHT22;63920;52.130;5.584;2023-01-26T02:39:43;0.10;99.90
75321;DHT22;63920;52.130;5.584;2023-01-26T02:42:12;0.10;99.90
75321;DHT22;63920;52.130;5.584;2023-01-26T02:44:56;0.10;99.90
75321;DHT22;63920;52.130;5.584;2023-01-26T02:47:22;0.10;99.90
75321;DHT22;63920;52.130;5.584;2023-01-26T02:49:47;0.20;99.90
75321;DHT22;63920;52.130;5.584;2023-01-26T02:52:17;0.10;99.90
75321;DHT22;63920;52.130;5.584;2023-01-26T02:54:43;0.10;99.90
75321;DHT22;63920;52.130;5.584;2023-01-26T02:57:27;0.00;99.90
75321;DHT22;63920;52.130;5.584;2023-01-26T02:59:53;0.00;99.90
75321;DHT22;63920;52.130;5.584;2023-01-26T03:02:19;0.10;99.90
75321;DHT22;63920;52.130;5.584;2023-01-26T03:04:44;0.10;99.90
75321;DHT22;63920;52.130;5.584;2023-01-26T03:07:10;0.10;99.90
75321;DHT22;63920;52.130;5.584;2023-01-26T03:09:36;0.10;99.90
75321;DHT22;63920;52.130;5.584;2023-01-26T03:12:02;0.10;99.90
75321;DHT22;63920;52.130;5.584;2023-01-26T03:14:27;0.10;99.90
75321;DHT22;63920;52.130;5.584;2023-01-26T03:16:53;0.20;99.90
75321;DHT22;63920;52.130;5.584;2023-01-26T03:19:20;0.40;99.90
75321;DHT22;63920;52.130;5.584;2023-01-26T03:22:04;0.30;99.90
75321;DHT22;63920;52.130;5.584;2023-01-26T03:24:48;0.20;99.90
75321;DHT22;63920;52.130;5.584;2023-01-26T03:27:44;0.30;99.90
75321;DHT22;63920;52.130;5.584;2023-01-26T03:30:10;0.20;99.90
75321;DHT22;63920;52.130;5.584;2023-01-26T03:32:36;0.30;99.90
75321;DHT22;63920;52.130;5.584;2023-01-26T03:35:02;0.30;99.90
75321;DHT22;63920;52.130;5.584;2023-01-26T03:37:28;0.20;99.90
75321;DHT22;63920;52.130;5.584;2023-01-26T03:40:02;0.30;99.90
75321;DHT22;63920;52.130;5.584;2023-01-26T03:42:46;0.30;99.90
75321;DHT22;63920;52.130;5.584;2023-01-26T03:45:30;0.30;99.90
75321;DHT22;63920;52.130;5.584;2023-01-26T03:48:14;0.20;99.90
75321;DHT22;63920;52.130;5.584;2023-01-26T03:50:58;0.20;99.90
75321;DHT22;63920;52.130;5.584;2023-01-26T03:53:43;0.30;99.90
75321;DHT22;63920;52.130;5.584;2023-01-26T03:56:27;0.30;99.90
75321;DHT22;63920;52.130;5.584;2023-01-26T03:59:01;0.30;99.90
75321;DHT22;63920;52.130;5.584;2023-01-26T04:01:38;0.30;99.90
75321;DHT22;63920;52.130;5.584;2023-01-26T04:04:04;0.30;99.90
75321;DHT22;63920;52.130;5.584;2023-01-26T04:06:49;0.70;99.90
75321;DHT22;63920;52.130;5.584;2023-01-26T04:09:35;0.40;99.90
75321;DHT22;63920;52.130;5.584;2023-01-26T04:12:02;0.30;99.90
75321;DHT22;63920;52.130;5.584;2023-01-26T04:14:28;0.40;99.90
75321;DHT22;63920;52.130;5.584;2023-01-26T04:17:12;0.40;99.90
75321;DHT22;63920;52.130;5.584;2023-01-26T04:19:56;0.30;99.90
75321;DHT22;63920;52.130;5.584;2023-01-26T04:22:40;0.40;99.90
75321;DHT22;63920;52.130;5.584;2023-01-26T04:25:19;0.40;99.90
75321;DHT22;63920;52.130;5.584;2023-01-26T04:27:45;0.50;99.90
75321;DHT22;63920;52.130;5.584;2023-01-26T04:30:12;0.50;99.90
75321;DHT22;63920;52.130;5.584;2023-01-26T04:32:38;0.50;99.90
75321;DHT22;63920;52.130;5.584;2023-01-26T04:35:05;0.50;99.90
75321;DHT22;63920;52.130;5.584;2023-01-26T04:37:32;0.50;99.90
75321;DHT22;63920;52.130;5.584;2023-01-26T04:39:57;0.50;99.90
75321;DHT22;63920;52.130;5.584;2023-01-26T04:42:23;0.50;99.90
75321;DHT22;63920;52.130;5.584;2023-01-26T04:44:52;0.60;99.90
75321;DHT22;63920;52.130;5.584;2023-01-26T04:47:18;0.40;99.90
75321;DHT22;63920;52.130;5.584;2023-01-26T04:49:44;0.40;99.90
75321;DHT22;63920;52.130;5.584;2023-01-26T04:52:10;0.40;99.90
75321;DHT22;63920;52.130;5.584;2023-01-26T04:54:36;0.40;99.90
75321;DHT22;63920;52.130;5.584;2023-01-26T04:57:01;0.40;99.90
75321;DHT22;63920;52.130;5.584;2023-01-26T04:59:27;0.40;99.90
75321;DHT22;63920;52.130;5.584;2023-01-26T05:01:52;0.40;99.90
75321;DHT22;63920;52.130;5.584;2023-01-26T05:04:18;0.40;99.90
75321;DHT22;63920;52.130;5.584;2023-01-26T05:06:44;0.40;99.90
75321;DHT22;63920;52.130;5.584;2023-01-26T05:09:10;0.50;99.90
75321;DHT22;63920;52.130;5.584;2023-01-26T05:11:36;0.40;99.90
75321;DHT22;63920;52.130;5.584;2023-01-26T05:14:01;0.40;99.90
75321;DHT22;63920;52.130;5.584;2023-01-26T05:16:27;0.40;99.90
75321;DHT22;63920;52.130;5.584;2023-01-26T05:18:53;0.40;99.90
75321;DHT22;63920;52.130;5.584;2023-01-26T05:21:18;0.40;99.90
75321;DHT22;63920;52.130;5.584;2023-01-26T05:23:44;0.50;99.90
75321;DHT22;63920;52.130;5.584;2023-01-26T05:26:09;0.50;99.90
75321;DHT22;63920;52.130;5.584;2023-01-26T05:28:35;0.50;99.90
75321;DHT22;63920;52.130;5.584;2023-01-26T05:31:01;0.50;99.90
75321;DHT22;63920;52.130;5.584;2023-01-26T05:33:27;0.50;99.90
75321;DHT22;63920;52.130;5.584;2023-01-26T05:35:52;0.60;99.90
75321;DHT22;63920;52.130;5.584;2023-01-26T05:38:18;0.60;99.90
75321;DHT22;63920;52.130;5.584;2023-01-26T05:40:44;0.70;99.90
75321;DHT22;63920;52.130;5.584;2023-01-26T05:43:10;0.60;99.90
75321;DHT22;63920;52.130;5.584;2023-01-26T05:45:40;0.70;99.90
75321;DHT22;63920;52.130;5.584;2023-01-26T05:48:06;0.60;99.90
75321;DHT22;63920;52.130;5.584;2023-01-26T05:50:31;0.60;99.90
75321;DHT22;63920;52.130;5.584;2023-01-26T05:52:57;0.60;99.90
75321;DHT22;63920;52.130;5.584;2023-01-26T05:55:25;0.60;99.90
75321;DHT22;63920;52.130;5.584;2023-01-26T05:57:50;0.70;99.90
75321;DHT22;63920;52.130;5.584;2023-01-26T06:00:16;0.80;99.90
75321;DHT22;63920;52.130;5.584;2023-01-26T06:02:42;0.80;99.90
75321;DHT22;63920;52.130;5.584;2023-01-26T06:05:08;0.80;99.90
75321;DHT22;63920;52.130;5.584;2023-01-26T06:07:33;0.80;99.90
75321;DHT22;63920;52.130;5.584;2023-01-26T06:09:59;0.80;99.90
75321;DHT22;63920;52.130;5.584;2023-01-26T06:12:25;0.80;99.90
75321;DHT22;63920;52.130;5.584;2023-01-26T06:14:52;0.80;99.90
75321;DHT22;63920;52.130;5.584;2023-01-26T06:17:18;0.80;99.90
75321;DHT22;63920;52.130;5.584;2023-01-26T06:19:43;0.80;99.90
75321;DHT22;63920;52.130;5.584;2023-01-26T06:22:10;0.80;99.90
75321;DHT22;63920;52.130;5.584;2023-01-26T06:24:36;0.70;99.90
75321;DHT22;63920;52.130;5.584;2023-01-26T06:27:02;0.70;99.90
75321;DHT22;63920;52.130;5.584;2023-01-26T06:29:31;0.70;99.90
75321;DHT22;63920;52.130;5.584;2023-01-26T06:31:57;0.80;99.90
75321;DHT22;63920;52.130;5.584;2023-01-26T06:34:22;0.80;99.90
75321;DHT22;63920;52.130;5.584;2023-01-26T06:36:48;0.90;99.90
75321;DHT22;63920;52.130;5.584;2023-01-26T06:39:13;0.60;99.90
75321;DHT22;63920;52.130;5.584;2023-01-26T06:41:41;0.80;99.90
75321;DHT22;63920;52.130;5.584;2023-01-26T06:44:08;0.80;99.90
75321;DHT22;63920;52.130;5.584;2023-01-26T06:46:33;0.80;99.90
75321;DHT22;63920;52.130;5.584;2023-01-26T06:49:01;0.80;99.90
75321;DHT22;63920;52.130;5.584;2023-01-26T06:51:46;0.80;99.90
75321;DHT22;63920;52.130;5.584;2023-01-26T06:54:16;0.90;99.90
75321;DHT22;63920;52.130;5.584;2023-01-26T06:56:42;0.80;99.90
75321;DHT22;63920;52.130;5.584;2023-01-26T06:59:07;0.90;99.90
75321;DHT22;63920;52.130;5.584;2023-01-26T07:01:38;0.90;99.90
75321;DHT22;63920;52.130;5.584;2023-01-26T07:04:04;1.00;99.90
75321;DHT22;63920;52.130;5.584;2023-01-26T07:06:29;0.90;99.90
75321;DHT22;63920;52.130;5.584;2023-01-26T07:08:55;0.90;99.90
75321;DHT22;63920;52.130;5.584;2023-01-26T07:11:20;0.90;99.90
75321;DHT22;63920;52.130;5.584;2023-01-26T07:13:47;0.90;99.90
75321;DHT22;63920;52.130;5.584;2023-01-26T07:16:14;1.00;99.90
75321;DHT22;63920;52.130;5.584;2023-01-26T07:18:40;0.90;99.90
75321;DHT22;63920;52.130;5.584;2023-01-26T07:21:08;0.90;99.90
75321;DHT22;63920;52.130;5.584;2023-01-26T07:23:35;1.00;99.90
75321;DHT22;63920;52.130;5.584;2023-01-26T07:26:01;0.90;99.90
75321;DHT22;63920;52.130;5.584;2023-01-26T07:28:26;0.90;99.90
75321;DHT22;63920;52.130;5.584;2023-01-26T07:30:55;0.80;99.90
75321;DHT22;63920;52.130;5.584;2023-01-26T07:33:21;0.80;99.90
75321;DHT22;63920;52.130;5.584;2023-01-26T07:35:46;0.90;99.90
75321;DHT22;63920;52.130;5.584;2023-01-26T07:38:12;0.90;99.90
75321;DHT22;63920;52.130;5.584;2023-01-26T07:40:38;0.90;99.90
75321;DHT22;63920;52.130;5.584;2023-01-26T07:43:03;0.90;99.90
75321;DHT22;63920;52.130;5.584;2023-01-26T07:45:29;0.90;99.90
75321;DHT22;63920;52.130;5.584;2023-01-26T07:47:54;0.90;99.90
75321;DHT22;63920;52.130;5.584;2023-01-26T07:52:59;0.90;99.90
75321;DHT22;63920;52.130;5.584;2023-01-26T07:55:25;0.90;99.90
75321;DHT22;63920;52.130;5.584;2023-01-26T07:57:51;0.90;99.90
75321;DHT22;63920;52.130;5.584;2023-01-26T08:00:17;0.90;99.90
75321;DHT22;63920;52.130;5.584;2023-01-26T08:02:43;0.90;99.90
75321;DHT22;63920;52.130;5.584;2023-01-26T08:05:09;0.90;99.90
75321;DHT22;63920;52.130;5.584;2023-01-26T08:07:34;0.80;99.90
75321;DHT22;63920;52.130;5.584;2023-01-26T08:10:00;0.80;99.90
75321;DHT22;63920;52.130;5.584;2023-01-26T08:12:26;0.80;99.90
75321;DHT22;63920;52.130;5.584;2023-01-26T08:14:51;0.90;99.90
75321;DHT22;63920;52.130;5.584;2023-01-26T08:17:17;0.90;99.90
75321;DHT22;63920;52.130;5.584;2023-01-26T08:19:44;0.90;99.90
75321;DHT22;63920;52.130;5.584;2023-01-26T08:22:10;0.90;99.90
75321;DHT22;63920;52.130;5.584;2023-01-26T08:24:35;0.90;99.90
75321;DHT22;63920;52.130;5.584;2023-01-26T08:27:01;0.90;99.90
75321;DHT22;63920;52.130;5.584;2023-01-26T08:29:27;0.90;99.90
75321;DHT22;63920;52.130;5.584;2023-01-26T08:31:52;1.00;99.90
75321;DHT22;63920;52.130;5.584;2023-01-26T08:34:18;1.00;99.90
75321;DHT22;63920;52.130;5.584;2023-01-26T08:36:46;1.10;99.90
75321;DHT22;63920;52.130;5.584;2023-01-26T08:39:11;1.10;99.90
75321;DHT22;63920;52.130;5.584;2023-01-26T08:41:37;1.20;99.90
75321;DHT22;63920;52.130;5.584;2023-01-26T08:44:03;1.30;99.90
75321;DHT22;63920;52.130;5.584;2023-01-26T08:46:29;1.30;99.90
75321;DHT22;63920;52.130;5.584;2023-01-26T08:48:55;1.30;99.90
75321;DHT22;63920;52.130;5.584;2023-01-26T08:51:20;1.40;99.90
75321;DHT22;63920;52.130;5.584;2023-01-26T08:53:46;1.40;99.90
75321;DHT22;63920;52.130;5.584;2023-01-26T08:56:12;1.40;99.90
75321;DHT22;63920;52.130;5.584;2023-01-26T08:58:38;1.40;99.90
75321;DHT22;63920;52.130;5.584;2023-01-26T09:01:09;1.50;99.90
75321;DHT22;63920;52.130;5.584;2023-01-26T09:03:35;1.70;99.90
75321;DHT22;63920;52.130;5.584;2023-01-26T09:06:03;1.50;99.90
75321;DHT22;63920;52.130;5.584;2023-01-26T09:08:31;1.50;99.90
75321;DHT22;63920;52.130;5.584;2023-01-26T09:10:57;1.50;99.90
75321;DHT22;63920;52.130;5.584;2023-01-26T09:13:22;1.50;99.90
75321;DHT22;63920;52.130;5.584;2023-01-26T09:15:49;1.60;99.90
75321;DHT22;63920;52.130;5.584;2023-01-26T09:18:14;1.60;99.90
75321;DHT22;63920;52.130;5.584;2023-01-26T09:20:40;1.70;99.90
75321;DHT22;63920;52.130;5.584;2023-01-26T09:23:06;1.70;99.90
75321;DHT22;63920;52.130;5.584;2023-01-26T09:25:35;1.70;99.90
75321;DHT22;63920;52.130;5.584;2023-01-26T09:28:05;1.80;99.90
75321;DHT22;63920;52.130;5.584;2023-01-26T09:30:31;1.80;99.90
75321;DHT22;63920;52.130;5.584;2023-01-26T09:32:58;1.80;99.90
75321;DHT22;63920;52.130;5.584;2023-01-26T09:35:24;1.90;99.90
75321;DHT22;63920;52.130;5.584;2023-01-26T09:37:50;1.90;99.90
75321;DHT22;63920;52.130;5.584;2023-01-26T09:41:01;2.00;99.90
75321;DHT22;63920;52.130;5.584;2023-01-26T09:48:46;2.20;99.90
75321;DHT22;63920;52.130;5.584;2023-01-26T09:53:53;2.30;99.90
75321;DHT22;63920;52.130;5.584;2023-01-26T09:56:24;2.40;99.90
75321;DHT22;63920;52.130;5.584;2023-01-26T10:01:34;2.50;99.90
75321;DHT22;63920;52.130;5.584;2023-01-26T10:04:33;2.60;99.90
75321;DHT22;63920;52.130;5.584;2023-01-26T10:07:09;2.70;99.90
75321;DHT22;63920;52.130;5.584;2023-01-26T10:09:37;2.80;99.90
75321;DHT22;63920;52.130;5.584;2023-01-26T10:12:18;2.80;99.90
75321;DHT22;63920;52.130;5.584;2023-01-26T10:14:50;2.90;99.90
75321;DHT22;63920;52.130;5.584;2023-01-26T10:17:38;2.90;99.90
75321;DHT22;63920;52.130;5.584;2023-01-26T10:20:22;3.00;99.90
75321;DHT22;63920;52.130;5.584;2023-01-26T10:22:54;3.10;99.90
75321;DHT22;63920;52.130;5.584;2023-01-26T10:25:29;3.30;99.90
75321;DHT22;63920;52.130;5.584;2023-01-26T10:27:57;3.30;99.90
75321;DHT22;63920;52.130;5.584;2023-01-26T10:30:23;3.40;99.90
75321;DHT22;63920;52.130;5.584;2023-01-26T10:32:52;3.50;99.90
75321;DHT22;63920;52.130;5.584;2023-01-26T10:35:21;3.60;99.90
75321;DHT22;63920;52.130;5.584;2023-01-26T10:37:48;3.70;99.90
75321;DHT22;63920;52.130;5.584;2023-01-26T10:40:14;3.80;99.90
75321;DHT22;63920;52.130;5.584;2023-01-26T10:42:56;3.90;99.90
75321;DHT22;63920;52.130;5.584;2023-01-26T10:45:26;4.00;99.90
75321;DHT22;63920;52.130;5.584;2023-01-26T10:48:17;4.10;99.90
75321;DHT22;63920;52.130;5.584;2023-01-26T10:50:45;4.20;99.90
75321;DHT22;63920;52.130;5.584;2023-01-26T10:53:37;4.20;99.90
75321;DHT22;63920;52.130;5.584;2023-01-26T10:56:04;4.40;99.90
75321;DHT22;63920;52.130;5.584;2023-01-26T11:01:03;4.60;99.90
75321;DHT22;63920;52.130;5.584;2023-01-26T11:03:28;4.70;99.90
75321;DHT22;63920;52.130;5.584;2023-01-26T11:06:05;4.80;99.90
75321;DHT22;63920;52.130;5.584;2023-01-26T11:08:36;4.90;99.90
75321;DHT22;63920;52.130;5.584;2023-01-26T11:11:04;5.10;99.90
75321;DHT22;63920;52.130;5.584;2023-01-26T11:13:32;5.10;99.90
75321;DHT22;63920;52.130;5.584;2023-01-26T11:19:16;5.30;99.90
75321;DHT22;63920;52.130;5.584;2023-01-26T11:22:05;5.30;99.90
75321;DHT22;63920;52.130;5.584;2023-01-26T11:24:37;5.50;99.90
75321;DHT22;63920;52.130;5.584;2023-01-26T11:30:27;5.70;99.90
75321;DHT22;63920;52.130;5.584;2023-01-26T11:43:53;5.90;99.90
75321;DHT22;63920;52.130;5.584;2023-01-26T11:51:55;6.00;99.90
75321;DHT22;63920;52.130;5.584;2023-01-26T11:57:23;6.00;99.90
75321;DHT22;63920;52.130;5.584;2023-01-26T12:00:15;5.90;99.90
75321;DHT22;63920;52.130;5.584;2023-01-26T12:03:00;6.10;99.90
75321;DHT22;63920;52.130;5.584;2023-01-26T12:05:39;6.40;99.90
75321;DHT22;63920;52.130;5.584;2023-01-26T12:11:04;6.40;99.90
75321;DHT22;63920;52.130;5.584;2023-01-26T12:24:55;6.60;99.90
75321;DHT22;63920;52.130;5.584;2023-01-26T12:27:35;6.60;99.90
75321;DHT22;63920;52.130;5.584;2023-01-26T12:33:19;6.70;99.90
75321;DHT22;63920;52.130;5.584;2023-01-26T12:38:13;6.60;99.90
75321;DHT22;63920;52.130;5.584;2023-01-26T12:43:53;6.70;99.90
75321;DHT22;63920;52.130;5.584;2023-01-26T12:46:22;6.70;99.90
75321;DHT22;63920;52.130;5.584;2023-01-26T12:48:59;6.70;99.90
75321;DHT22;63920;52.130;5.584;2023-01-26T12:51:30;6.70;99.90
75321;DHT22;63920;52.130;5.584;2023-01-26T12:56:38;6.70;99.90
75321;DHT22;63920;52.130;5.584;2023-01-26T13:01:47;6.80;99.90
75321;DHT22;63920;52.130;5.584;2023-01-26T13:04:14;6.90;99.90
75321;DHT22;63920;52.130;5.584;2023-01-26T13:06:41;6.90;99.90
75321;DHT22;63920;52.130;5.584;2023-01-26T13:09:22;6.90;99.90
75321;DHT22;63920;52.130;5.584;2023-01-26T13:16:54;7.00;99.90
75321;DHT22;63920;52.130;5.584;2023-01-26T13:24:47;7.20;99.90
75321;DHT22;63920;52.130;5.584;2023-01-26T13:30:55;7.10;99.90
75321;DHT22;63920;52.130;5.584;2023-01-26T13:35:21;7.20;99.90
75321;DHT22;63920;52.130;5.584;2023-01-26T13:38:10;7.30;99.90
75321;DHT22;63920;52.130;5.584;2023-01-26T13:40:43;7.30;99.90
75321;DHT22;63920;52.130;5.584;2023-01-26T13:48:52;7.30;99.90
75321;DHT22;63920;52.130;5.584;2023-01-26T13:56:32;7.30;99.90
75321;DHT22;63920;52.130;5.584;2023-01-26T13:59:15;7.30;99.90
75321;DHT22;63920;52.130;5.584;2023-01-26T14:01:52;7.20;99.90
75321;DHT22;63920;52.130;5.584;2023-01-26T14:07:07;7.30;99.90
75321;DHT22;63920;52.130;5.584;2023-01-26T14:09:40;7.30;99.90
75321;DHT22;63920;52.130;5.584;2023-01-26T14:12:27;7.30;99.90
75321;DHT22;63920;52.130;5.584;2023-01-26T14:15:00;7.10;99.90
75321;DHT22;63920;52.130;5.584;2023-01-26T14:19:54;7.00;99.90
75321;DHT22;63920;52.130;5.584;2023-01-26T14:22:20;7.10;99.90
75321;DHT22;63920;52.130;5.584;2023-01-26T14:24:50;7.00;99.90
75321;DHT22;63920;52.130;5.584;2023-01-26T14:27:39;7.00;99.90
75321;DHT22;63920;52.130;5.584;2023-01-26T14:30:29;7.00;99.90
75321;DHT22;63920;52.130;5.584;2023-01-26T14:33:14;7.00;99.90
75321;DHT22;63920;52.130;5.584;2023-01-26T14:35:58;7.00;99.90
75321;DHT22;63920;52.130;5.584;2023-01-26T14:38:24;7.00;99.90
75321;DHT22;63920;52.130;5.584;2023-01-26T14:40:54;7.10;99.90
75321;DHT22;63920;52.130;5.584;2023-01-26T14:43:22;7.00;99.90
75321;DHT22;63920;52.130;5.584;2023-01-26T14:46:16;7.00;99.90
75321;DHT22;63920;52.130;5.584;2023-01-26T14:51:22;7.00;99.90
75321;DHT22;63920;52.130;5.584;2023-01-26T14:53:55;7.00;99.90
75321;DHT22;63920;52.130;5.584;2023-01-26T14:56:32;7.10;99.90
75321;DHT22;63920;52.130;5.584;2023-01-26T14:58:58;7.00;99.90
75321;DHT22;63920;52.130;5.584;2023-01-26T15:01:25;7.00;99.90
75321;DHT22;63920;52.130;5.584;2023-01-26T15:03:58;7.00;99.90
75321;DHT22;63920;52.130;5.584;2023-01-26T15:06:25;7.00;99.90
75321;DHT22;63920;52.130;5.584;2023-01-26T15:09:04;6.90;99.90
75321;DHT22;63920;52.130;5.584;2023-01-26T15:11:36;6.90;99.90
75321;DHT22;63920;52.130;5.584;2023-01-26T15:14:48;6.90;99.90
75321;DHT22;63920;52.130;5.584;2023-01-26T15:17:30;7.00;99.90
75321;DHT22;63920;52.130;5.584;2023-01-26T15:20:00;6.90;99.90
75321;DHT22;63920;52.130;5.584;2023-01-26T15:22:26;6.80;99.90
75321;DHT22;63920;52.130;5.584;2023-01-26T15:27:55;6.80;99.90
75321;DHT22;63920;52.130;5.584;2023-01-26T15:30:33;6.80;99.90
75321;DHT22;63920;52.130;5.584;2023-01-26T15:33:00;6.80;99.90
75321;DHT22;63920;52.130;5.584;2023-01-26T15:35:34;6.80;99.90
75321;DHT22;63920;52.130;5.584;2023-01-26T15:38:07;6.80;99.90
75321;DHT22;63920;52.130;5.584;2023-01-26T15:40:33;6.80;99.90
75321;DHT22;63920;52.130;5.584;2023-01-26T15:43:12;6.80;99.90
75321;DHT22;63920;52.130;5.584;2023-01-26T15:45:40;6.80;99.90
75321;DHT22;63920;52.130;5.584;2023-01-26T15:48:08;6.80;99.90
75321;DHT22;63920;52.130;5.584;2023-01-26T15:50:33;6.70;99.90
75321;DHT22;63920;52.130;5.584;2023-01-26T15:52:59;6.70;99.90
75321;DHT22;63920;52.130;5.584;2023-01-26T15:55:26;6.70;99.90
75321;DHT22;63920;52.130;5.584;2023-01-26T15:57:53;6.70;99.90
75321;DHT22;63920;52.130;5.584;2023-01-26T16:00:19;6.70;99.90
75321;DHT22;63920;52.130;5.584;2023-01-26T16:02:45;6.70;99.90
75321;DHT22;63920;52.130;5.584;2023-01-26T16:05:17;6.70;99.90
75321;DHT22;63920;52.130;5.584;2023-01-26T16:07:42;6.70;99.90
75321;DHT22;63920;52.130;5.584;2023-01-26T16:10:08;6.70;99.90
75321;DHT22;63920;52.130;5.584;2023-01-26T16:12:34;6.60;99.90
75321;DHT22;63920;52.130;5.584;2023-01-26T16:15:00;6.70;99.90
75321;DHT22;63920;52.130;5.584;2023-01-26T16:17:28;6.60;99.90
75321;DHT22;63920;52.130;5.584;2023-01-26T16:19:53;6.60;99.90
75321;DHT22;63920;52.130;5.584;2023-01-26T16:22:19;6.60;99.90
75321;DHT22;63920;52.130;5.584;2023-01-26T16:24:45;6.60;99.90
75321;DHT22;63920;52.130;5.584;2023-01-26T16:27:11;6.50;99.90
75321;DHT22;63920;52.130;5.584;2023-01-26T16:29:36;6.50;99.90
75321;DHT22;63920;52.130;5.584;2023-01-26T16:32:13;6.50;99.90
75321;DHT22;63920;52.130;5.584;2023-01-26T16:34:39;6.50;99.90
75321;DHT22;63920;52.130;5.584;2023-01-26T16:37:05;6.50;99.90
75321;DHT22;63920;52.130;5.584;2023-01-26T16:39:30;6.50;99.90
75321;DHT22;63920;52.130;5.584;2023-01-26T16:41:56;6.50;99.90
75321;DHT22;63920;52.130;5.584;2023-01-26T16:44:22;6.50;99.90
75321;DHT22;63920;52.130;5.584;2023-01-26T16:46:48;6.50;99.90
75321;DHT22;63920;52.130;5.584;2023-01-26T16:49:14;6.40;99.90
75321;DHT22;63920;52.130;5.584;2023-01-26T16:51:41;6.40;99.90
75321;DHT22;63920;52.130;5.584;2023-01-26T16:54:10;6.40;99.90
75321;DHT22;63920;52.130;5.584;2023-01-26T16:56:36;6.40;99.90
75321;DHT22;63920;52.130;5.584;2023-01-26T16:59:01;6.40;99.90
75321;DHT22;63920;52.130;5.584;2023-01-26T17:01:32;6.40;99.90
75321;DHT22;63920;52.130;5.584;2023-01-26T17:03:57;6.40;99.90
75321;DHT22;63920;52.130;5.584;2023-01-26T17:06:23;6.40;99.90
75321;DHT22;63920;52.130;5.584;2023-01-26T17:08:49;6.40;99.90
75321;DHT22;63920;52.130;5.584;2023-01-26T17:11:25;6.40;99.90
75321;DHT22;63920;52.130;5.584;2023-01-26T17:13:52;6.40;99.90
75321;DHT22;63920;52.130;5.584;2023-01-26T17:16:20;6.40;99.90
75321;DHT22;63920;52.130;5.584;2023-01-26T17:18:47;6.40;99.90
75321;DHT22;63920;52.130;5.584;2023-01-26T17:21:14;6.30;99.90
75321;DHT22;63920;52.130;5.584;2023-01-26T17:23:40;6.40;99.90
75321;DHT22;63920;52.130;5.584;2023-01-26T17:26:11;6.40;99.90
75321;DHT22;63920;52.130;5.584;2023-01-26T17:28:37;6.40;99.90
75321;DHT22;63920;52.130;5.584;2023-01-26T17:31:11;6.40;99.90
75321;DHT22;63920;52.130;5.584;2023-01-26T17:33:37;6.40;99.90
75321;DHT22;63920;52.130;5.584;2023-01-26T17:36:04;6.30;99.90
75321;DHT22;63920;52.130;5.584;2023-01-26T17:38:30;6.30;99.90
75321;DHT22;63920;52.130;5.584;2023-01-26T17:40:57;6.30;99.90
75321;DHT22;63920;52.130;5.584;2023-01-26T17:43:23;6.30;99.90
75321;DHT22;63920;52.130;5.584;2023-01-26T17:45:49;6.30;99.90
75321;DHT22;63920;52.130;5.584;2023-01-26T17:48:15;6.30;99.90
75321;DHT22;63920;52.130;5.584;2023-01-26T17:50:48;6.30;99.90
75321;DHT22;63920;52.130;5.584;2023-01-26T17:53:13;6.30;99.90